Portada
METAR-TAF:

METAR-TAF

Aeroports :

Mahiliou, Bielorússia

latitud: 53-57-18N, longitud: 030-05-42E, altitud: 194 m

Observació

L'informe es va fer fa 9 hores i 33 minuts, a les 13:00 UTC
Vent 4 kt del Oest
Temperatura 24°C
Humitat 47%
Pressió 1027 hPa
Visibilitat 10 km o més
sense núvols per sota de 1500 mi sense presència de cumulonimbus.

METAR: UMOO 241300Z 26002MPS CAVOK 24/12 Q1027 R31/CLRD// NOSIG

Hora: 01:33 (22:33 UTC)

Pronòstic

L'informe es va fer fa 11 hores i 33 minuts, a les 11:00 UTC
Pronòstic vàlid del 24 a les 12 UTC al 24 a les 21 UTC
Vent 4 kt amb direcció variable
Visibilitat 10 km o més
Núvols disperses a una alçada de 2500 ft
Temporalment
l' 24 a les 12 UTC al 24 a les 18 UTC
Vent 10 kt del Oest
Temporalment
l' 24 a les 18 UTC al 24 a les 21 UTC
Visibilitat: 2000 m
Núvols disperses a una alçada de 500 ft
boirina

TAF: UMOO 241100Z 2412/2421 VRB02MPS 9999 SCT025 TEMPO 2412/2418 28005MPS TEMPO 2418/2421 2000 BR SCT005

Observacions i pronòstics meteorològics de més de 4000 aeroports (METAR i TAF).

Les estacions disponibles són els punts grocs i vermells al mapa.

Posi el ratolí al punt desitjat per veure el nom de l'estació.

Feu clic per veure les observacions i els pronòstics meteorològics.

Per canviar el mapa: feu clic els botons verds amb una creu de color negre per apropar; al botó verd amb un guió per allunyar la imatge; o en les fletxes verdes per a mapes adjacents.


METAR-TAF: